首页
METAR-TAF:

METAR-TAF

机场 :

巴里, 意大利

纬度: 41-08N, 经度: 016-47E, 海拔: 34米

当前天气观测

该预报发布于25分钟前的06:50 UTC
风速2节,风向多变
温度 18°C
湿度 88%
气压 1019 hPa
能见度10公里或以上
1500米以下无云,无积雨云

METAR: LIBD 150650Z VRB02KT CAVOK 18/16 Q1019

时间: 09:15 (07:15 UTC)

预报

该预报发布于2小时和15分钟前的05:00 UTC
预报有效从15日的 06点(UTC)到 16日的 06点(UTC)
风速7节,风向东北
能见度10公里或以上
散云层高于1500英尺
成为
从 15日的 16点(UTC)到 15日的 18点(UTC)
风速10节,风向

TAF: LIBD 150500Z 1506/1606 05007KT 9999 SCT015 BECMG 1516/1518 18010KT

超过4000个机场的气象观测和天气预报(METAR&TAF报告)。

可查询的气象台以黄色和红色小点在地图上表示。

将鼠标移到小点上方,可查看气象台名称。

然后点击查看天气观测和预报。

如需切换地图:点击带黑十字的绿色按钮放大地图;点击带横线的绿色按钮缩小地图;或者点击绿色箭头查看邻近地区的地图。


METAR-TAF: